sensor_id;sensor_type;location;lat;lon;timestamp;pressure;altitude;pressure_sealevel;temperature;humidity
43681;BME280;29281;50.356;30.894;2023-04-23T00:00:49;100055.02;;;14.77;53.67
43681;BME280;29281;50.356;30.894;2023-04-23T00:01:55;100050.80;;;14.85;53.38
43681;BME280;29281;50.356;30.894;2023-04-23T00:03:00;100054.75;;;14.81;53.53
43681;BME280;29281;50.356;30.894;2023-04-23T00:04:08;100050.09;;;14.83;53.85
43681;BME280;29281;50.356;30.894;2023-04-23T00:05:12;100057.69;;;14.77;52.92
43681;BME280;29281;50.356;30.894;2023-04-23T00:06:17;100058.41;;;14.80;52.26
43681;BME280;29281;50.356;30.894;2023-04-23T00:07:20;100060.95;;;14.81;52.31
43681;BME280;29281;50.356;30.894;2023-04-23T00:08:23;100059.64;;;14.75;52.36
43681;BME280;29281;50.356;30.894;2023-04-23T00:09:29;100060.88;;;14.71;52.21
43681;BME280;29281;50.356;30.894;2023-04-23T00:10:33;100065.70;;;14.77;52.20
43681;BME280;29281;50.356;30.894;2023-04-23T00:11:38;100064.86;;;14.77;52.67
43681;BME280;29281;50.356;30.894;2023-04-23T00:12:41;100064.98;;;14.75;52.30
43681;BME280;29281;50.356;30.894;2023-04-23T00:13:45;100059.38;;;14.78;52.50
43681;BME280;29281;50.356;30.894;2023-04-23T00:14:50;100067.82;;;14.84;52.72
43681;BME280;29281;50.356;30.894;2023-04-23T00:15:53;100063.62;;;14.81;52.40
43681;BME280;29281;50.356;30.894;2023-04-23T00:17:00;100070.86;;;14.69;52.46
43681;BME280;29281;50.356;30.894;2023-04-23T00:18:04;100061.86;;;14.70;52.35
43681;BME280;29281;50.356;30.894;2023-04-23T00:19:08;100067.30;;;14.59;53.09
43681;BME280;29281;50.356;30.894;2023-04-23T00:20:11;100059.88;;;14.63;52.93
43681;BME280;29281;50.356;30.894;2023-04-23T00:21:15;100062.09;;;14.58;53.31
43681;BME280;29281;50.356;30.894;2023-04-23T00:22:20;100063.33;;;14.54;52.55
43681;BME280;29281;50.356;30.894;2023-04-23T00:23:24;100066.84;;;14.54;52.58
43681;BME280;29281;50.356;30.894;2023-04-23T00:24:29;100070.23;;;14.56;52.45
43681;BME280;29281;50.356;30.894;2023-04-23T00:25:34;100062.22;;;14.56;52.38
43681;BME280;29281;50.356;30.894;2023-04-23T00:26:36;100065.86;;;14.55;52.05
43681;BME280;29281;50.356;30.894;2023-04-23T00:27:40;100068.95;;;14.51;51.61
43681;BME280;29281;50.356;30.894;2023-04-23T00:28:43;100065.14;;;14.53;51.62
43681;BME280;29281;50.356;30.894;2023-04-23T00:29:46;100066.72;;;14.56;51.74
43681;BME280;29281;50.356;30.894;2023-04-23T00:30:49;100063.91;;;14.57;51.72
43681;BME280;29281;50.356;30.894;2023-04-23T00:31:52;100067.17;;;14.61;51.36
43681;BME280;29281;50.356;30.894;2023-04-23T00:32:55;100069.84;;;14.61;51.68
43681;BME280;29281;50.356;30.894;2023-04-23T00:33:58;100071.28;;;14.65;51.35
43681;BME280;29281;50.356;30.894;2023-04-23T00:35:02;100079.00;;;14.68;51.61
43681;BME280;29281;50.356;30.894;2023-04-23T00:36:08;100077.90;;;14.70;51.57
43681;BME280;29281;50.356;30.894;2023-04-23T00:37:12;100075.81;;;14.74;51.58
43681;BME280;29281;50.356;30.894;2023-04-23T00:38:15;100066.81;;;14.75;51.47
43681;BME280;29281;50.356;30.894;2023-04-23T00:39:19;100074.31;;;14.81;51.41
43681;BME280;29281;50.356;30.894;2023-04-23T00:40:22;100077.11;;;14.80;50.68
43681;BME280;29281;50.356;30.894;2023-04-23T00:41:28;100073.53;;;14.69;51.12
43681;BME280;29281;50.356;30.894;2023-04-23T00:42:31;100078.88;;;14.69;51.27
43681;BME280;29281;50.356;30.894;2023-04-23T00:43:39;100079.17;;;14.66;51.32
43681;BME280;29281;50.356;30.894;2023-04-23T00:44:42;100075.31;;;14.59;51.99
43681;BME280;29281;50.356;30.894;2023-04-23T00:45:47;100076.89;;;14.62;51.96
43681;BME280;29281;50.356;30.894;2023-04-23T00:46:52;100071.41;;;14.63;51.97
43681;BME280;29281;50.356;30.894;2023-04-23T00:47:59;100075.19;;;14.61;52.47
43681;BME280;29281;50.356;30.894;2023-04-23T00:49:01;100074.21;;;14.62;51.91
43681;BME280;29281;50.356;30.894;2023-04-23T00:50:05;100080.14;;;14.65;52.21
43681;BME280;29281;50.356;30.894;2023-04-23T00:51:11;100073.10;;;14.64;53.14
43681;BME280;29281;50.356;30.894;2023-04-23T00:52:15;100075.65;;;14.66;52.19
43681;BME280;29281;50.356;30.894;2023-04-23T00:53:21;100075.91;;;14.63;52.29
43681;BME280;29281;50.356;30.894;2023-04-23T00:54:24;100073.50;;;14.60;52.28
43681;BME280;29281;50.356;30.894;2023-04-23T00:55:28;100078.50;;;14.53;51.75
43681;BME280;29281;50.356;30.894;2023-04-23T00:56:32;100073.88;;;14.55;52.14
43681;BME280;29281;50.356;30.894;2023-04-23T00:57:35;100070.63;;;14.52;52.56
43681;BME280;29281;50.356;30.894;2023-04-23T00:58:39;100073.30;;;14.52;52.07
43681;BME280;29281;50.356;30.894;2023-04-23T00:59:43;100078.12;;;14.58;51.97
43681;BME280;29281;50.356;30.894;2023-04-23T01:00:47;100072.91;;;14.56;52.33
43681;BME280;29281;50.356;30.894;2023-04-23T01:01:50;100073.16;;;14.53;52.21
43681;BME280;29281;50.356;30.894;2023-04-23T01:02:55;100070.49;;;14.53;52.34
43681;BME280;29281;50.356;30.894;2023-04-23T01:04:00;100078.38;;;14.55;52.71
43681;BME280;29281;50.356;30.894;2023-04-23T01:05:04;100075.45;;;14.58;52.68
43681;BME280;29281;50.356;30.894;2023-04-23T01:06:11;100064.59;;;14.50;53.24
43681;BME280;29281;50.356;30.894;2023-04-23T01:07:14;100071.34;;;14.54;52.84
43681;BME280;29281;50.356;30.894;2023-04-23T01:08:17;100075.70;;;14.55;52.86
43681;BME280;29281;50.356;30.894;2023-04-23T01:09:30;100073.53;;;14.69;52.81
43681;BME280;29281;50.356;30.894;2023-04-23T01:10:34;100075.31;;;14.59;53.01
43681;BME280;29281;50.356;30.894;2023-04-23T01:11:38;100074.14;;;14.52;53.40
43681;BME280;29281;50.356;30.894;2023-04-23T01:12:40;100068.80;;;14.52;53.75
43681;BME280;29281;50.356;30.894;2023-04-23T01:13:44;100069.80;;;14.51;53.09
43681;BME280;29281;50.356;30.894;2023-04-23T01:14:46;100077.53;;;14.54;52.65
43681;BME280;29281;50.356;30.894;2023-04-23T01:15:50;100078.25;;;14.56;52.09
43681;BME280;29281;50.356;30.894;2023-04-23T01:17:00;100071.89;;;14.48;52.25
43681;BME280;29281;50.356;30.894;2023-04-23T01:18:08;100080.42;;;14.41;52.60
43681;BME280;29281;50.356;30.894;2023-04-23T01:19:10;100068.88;;;14.41;52.30
43681;BME280;29281;50.356;30.894;2023-04-23T01:20:14;100073.47;;;14.39;53.12
43681;BME280;29281;50.356;30.894;2023-04-23T01:21:17;100076.81;;;14.31;52.82
43681;BME280;29281;50.356;30.894;2023-04-23T01:22:20;100066.12;;;14.31;53.30
43681;BME280;29281;50.356;30.894;2023-04-23T01:23:25;100077.97;;;14.38;52.99
43681;BME280;29281;50.356;30.894;2023-04-23T01:24:31;100070.80;;;14.39;53.19
43681;BME280;29281;50.356;30.894;2023-04-23T01:25:44;100076.97;;;14.51;53.33
43681;BME280;29281;50.356;30.894;2023-04-23T01:26:49;100073.12;;;14.43;52.79
43681;BME280;29281;50.356;30.894;2023-04-23T01:27:53;100075.80;;;14.43;52.97
43681;BME280;29281;50.356;30.894;2023-04-23T01:28:58;100082.11;;;14.42;52.99
43681;BME280;29281;50.356;30.894;2023-04-23T01:30:02;100073.25;;;14.42;53.47
43681;BME280;29281;50.356;30.894;2023-04-23T01:31:08;100075.20;;;14.40;54.72
43681;BME280;29281;50.356;30.894;2023-04-23T01:32:11;100066.56;;;14.36;53.98
43681;BME280;29281;50.356;30.894;2023-04-23T01:33:15;100072.06;;;14.35;53.41
43681;BME280;29281;50.356;30.894;2023-04-23T01:34:19;100069.11;;;14.38;52.83
43681;BME280;29281;50.356;30.894;2023-04-23T01:35:24;100075.30;;;14.38;53.63
43681;BME280;29281;50.356;30.894;2023-04-23T01:36:31;100074.98;;;14.32;53.40
43681;BME280;29281;50.356;30.894;2023-04-23T01:37:37;100069.91;;;14.29;53.35
43681;BME280;29281;50.356;30.894;2023-04-23T01:38:41;100075.50;;;14.26;53.13
43681;BME280;29281;50.356;30.894;2023-04-23T01:39:44;100067.74;;;14.23;53.38
43681;BME280;29281;50.356;30.894;2023-04-23T01:40:47;100078.42;;;14.23;53.10
43681;BME280;29281;50.356;30.894;2023-04-23T01:41:53;100080.66;;;14.18;53.38
43681;BME280;29281;50.356;30.894;2023-04-23T01:42:55;100077.02;;;14.19;53.49
43681;BME280;29281;50.356;30.894;2023-04-23T01:43:59;100082.86;;;14.13;53.19
43681;BME280;29281;50.356;30.894;2023-04-23T01:45:01;100080.66;;;14.18;53.50
43681;BME280;29281;50.356;30.894;2023-04-23T01:46:05;100075.20;;;14.19;53.95
43681;BME280;29281;50.356;30.894;2023-04-23T01:47:10;100078.55;;;14.21;53.44
43681;BME280;29281;50.356;30.894;2023-04-23T01:48:16;100073.80;;;14.25;53.42
43681;BME280;29281;50.356;30.894;2023-04-23T01:49:19;100079.28;;;14.23;53.46
43681;BME280;29281;50.356;30.894;2023-04-23T01:50:23;100080.25;;;14.22;54.11
43681;BME280;29281;50.356;30.894;2023-04-23T01:51:28;100083.33;;;14.18;53.88
43681;BME280;29281;50.356;30.894;2023-04-23T01:52:33;100079.16;;;14.04;53.66
43681;BME280;29281;50.356;30.894;2023-04-23T01:53:37;100083.12;;;14.09;53.75
43681;BME280;29281;50.356;30.894;2023-04-23T01:54:39;100085.66;;;14.11;54.25
43681;BME280;29281;50.356;30.894;2023-04-23T01:55:45;100078.63;;;14.10;53.91
43681;BME280;29281;50.356;30.894;2023-04-23T01:56:48;100080.79;;;14.16;55.24
43681;BME280;29281;50.356;30.894;2023-04-23T01:57:51;100079.69;;;14.19;55.44
43681;BME280;29281;50.356;30.894;2023-04-23T01:58:56;100079.22;;;14.14;55.21
43681;BME280;29281;50.356;30.894;2023-04-23T02:00:03;100086.26;;;14.15;55.34
43681;BME280;29281;50.356;30.894;2023-04-23T02:01:11;100080.20;;;14.13;55.25
43681;BME280;29281;50.356;30.894;2023-04-23T02:02:14;100085.06;;;14.07;55.41
43681;BME280;29281;50.356;30.894;2023-04-23T02:03:18;100088.02;;;14.04;55.05
43681;BME280;29281;50.356;30.894;2023-04-23T02:04:21;100091.06;;;14.00;54.85
43681;BME280;29281;50.356;30.894;2023-04-23T02:05:26;100087.08;;;13.94;55.03
43681;BME280;29281;50.356;30.894;2023-04-23T02:06:30;100083.43;;;13.95;56.72
43681;BME280;29281;50.356;30.894;2023-04-23T02:07:35;100079.66;;;13.98;57.88
43681;BME280;29281;50.356;30.894;2023-04-23T02:08:38;100093.39;;;13.93;55.48
43681;BME280;29281;50.356;30.894;2023-04-23T02:09:43;100087.08;;;13.94;55.73
43681;BME280;29281;50.356;30.894;2023-04-23T02:10:48;100087.08;;;13.94;55.44
43681;BME280;29281;50.356;30.894;2023-04-23T02:11:52;100082.70;;;13.93;55.28
43681;BME280;29281;50.356;30.894;2023-04-23T02:12:56;100084.53;;;13.93;55.71
43681;BME280;29281;50.356;30.894;2023-04-23T02:14:02;100086.35;;;13.92;55.26
43681;BME280;29281;50.356;30.894;2023-04-23T02:15:06;100075.60;;;13.83;57.03
43681;BME280;29281;50.356;30.894;2023-04-23T02:16:11;100084.95;;;13.77;56.29
43681;BME280;29281;50.356;30.894;2023-04-23T02:17:15;100081.80;;;13.83;55.99
43681;BME280;29281;50.356;30.894;2023-04-23T02:18:18;100083.61;;;13.83;55.56
43681;BME280;29281;50.356;30.894;2023-04-23T02:19:23;100087.38;;;13.80;55.68
43681;BME280;29281;50.356;30.894;2023-04-23T02:20:28;100086.90;;;13.75;56.03
43681;BME280;29281;50.356;30.894;2023-04-23T02:21:32;100091.55;;;13.73;56.18
43681;BME280;29281;50.356;30.894;2023-04-23T02:22:36;100087.18;;;13.72;55.73
43681;BME280;29281;50.356;30.894;2023-04-23T02:23:41;100083.66;;;13.71;55.81
43681;BME280;29281;50.356;30.894;2023-04-23T02:24:44;100092.64;;;13.70;55.75
43681;BME280;29281;50.356;30.894;2023-04-23T02:25:48;100096.89;;;13.73;55.66
43681;BME280;29281;50.356;30.894;2023-04-23T02:26:54;100086.33;;;13.71;56.31
43681;BME280;29281;50.356;30.894;2023-04-23T02:27:58;100088.75;;;13.75;56.04
43681;BME280;29281;50.356;30.894;2023-04-23T02:29:02;100088.88;;;13.73;56.35
43681;BME280;29281;50.356;30.894;2023-04-23T02:30:06;100091.31;;;13.65;56.35
43681;BME280;29281;50.356;30.894;2023-04-23T02:31:13;100090.88;;;13.49;57.38
43681;BME280;29281;50.356;30.894;2023-04-23T02:32:16;100098.42;;;13.44;57.68
43681;BME280;29281;50.356;30.894;2023-04-23T02:33:21;100096.09;;;13.50;57.31
43681;BME280;29281;50.356;30.894;2023-04-23T02:34:25;100090.84;;;13.60;56.74
43681;BME280;29281;50.356;30.894;2023-04-23T02:35:29;100092.81;;;13.58;55.91
43681;BME280;29281;50.356;30.894;2023-04-23T02:36:32;100102.11;;;13.63;56.20
43681;BME280;29281;50.356;30.894;2023-04-23T02:37:38;100101.38;;;13.61;55.96
43681;BME280;29281;50.356;30.894;2023-04-23T02:38:42;100097.30;;;13.46;56.27
43681;BME280;29281;50.356;30.894;2023-04-23T02:39:46;100102.52;;;13.48;56.65
43681;BME280;29281;50.356;30.894;2023-04-23T02:40:50;100099.00;;;13.47;56.56
43681;BME280;29281;50.356;30.894;2023-04-23T02:41:52;100099.12;;;13.46;56.13
43681;BME280;29281;50.356;30.894;2023-04-23T02:42:56;100099.97;;;13.46;56.21
43681;BME280;29281;50.356;30.894;2023-04-23T02:43:59;100097.82;;;13.40;56.89
43681;BME280;29281;50.356;30.894;2023-04-23T02:45:03;100099.00;;;13.47;56.85
43681;BME280;29281;50.356;30.894;2023-04-23T02:46:09;100100.48;;;13.40;57.09
43681;BME280;29281;50.356;30.894;2023-04-23T02:47:12;100099.27;;;13.33;57.49
43681;BME280;29281;50.356;30.894;2023-04-23T02:48:16;100102.91;;;13.32;57.71
43681;BME280;29281;50.356;30.894;2023-04-23T02:49:19;100099.39;;;13.31;57.76
43681;BME280;29281;50.356;30.894;2023-04-23T02:50:23;100103.27;;;13.38;57.34
43681;BME280;29281;50.356;30.894;2023-04-23T02:51:26;100105.45;;;13.33;57.29
43681;BME280;29281;50.356;30.894;2023-04-23T02:52:29;100104.48;;;13.34;57.27
43681;BME280;29281;50.356;30.894;2023-04-23T02:53:31;100107.06;;;13.25;58.01
43681;BME280;29281;50.356;30.894;2023-04-23T02:54:35;100101.61;;;13.26;58.28
43681;BME280;29281;50.356;30.894;2023-04-23T02:55:41;100102.81;;;13.22;58.08
43681;BME280;29281;50.356;30.894;2023-04-23T02:56:45;100097.23;;;13.25;57.72
43681;BME280;29281;50.356;30.894;2023-04-23T02:57:48;100099.79;;;13.27;57.62
43681;BME280;29281;50.356;30.894;2023-04-23T02:58:51;100105.00;;;13.28;57.55
43681;BME280;29281;50.356;30.894;2023-04-23T02:59:54;100101.84;;;13.23;58.42
43681;BME280;29281;50.356;30.894;2023-04-23T03:00:59;100100.63;;;13.27;57.99
43681;BME280;29281;50.356;30.894;2023-04-23T03:02:03;100108.85;;;13.35;57.57
43681;BME280;29281;50.356;30.894;2023-04-23T03:03:06;100102.19;;;13.41;57.38
43681;BME280;29281;50.356;30.894;2023-04-23T03:04:12;100103.03;;;13.42;57.29
43681;BME280;29281;50.356;30.894;2023-04-23T03:05:14;100099.12;;;13.46;57.05
43681;BME280;29281;50.356;30.894;2023-04-23T03:06:18;100103.24;;;13.50;57.19
43681;BME280;29281;50.356;30.894;2023-04-23T03:07:21;100107.48;;;13.52;57.19
43681;BME280;29281;50.356;30.894;2023-04-23T03:08:25;100101.66;;;13.58;57.00
43681;BME280;29281;50.356;30.894;2023-04-23T03:09:29;100102.88;;;13.54;56.94
43681;BME280;29281;50.356;30.894;2023-04-23T03:10:32;100098.02;;;13.59;57.45
43681;BME280;29281;50.356;30.894;2023-04-23T03:11:37;100096.77;;;13.63;57.09
43681;BME280;29281;50.356;30.894;2023-04-23T03:12:42;100102.36;;;13.60;57.48
43681;BME280;29281;50.356;30.894;2023-04-23T03:13:45;100105.02;;;13.60;57.41
43681;BME280;29281;50.356;30.894;2023-04-23T03:14:49;100106.35;;;13.66;57.61
43681;BME280;29281;50.356;30.894;2023-04-23T03:15:52;100095.55;;;13.67;57.91
43681;BME280;29281;50.356;30.894;2023-04-23T03:16:56;100100.89;;;13.67;57.77
43681;BME280;29281;50.356;30.894;2023-04-23T03:18:00;100102.96;;;13.64;57.84
43681;BME280;29281;50.356;30.894;2023-04-23T03:19:03;100105.78;;;13.51;58.52
43681;BME280;29281;50.356;30.894;2023-04-23T03:20:07;100102.76;;;13.45;58.24
43681;BME280;29281;50.356;30.894;2023-04-23T03:21:13;100098.03;;;13.48;58.56
43681;BME280;29281;50.356;30.894;2023-04-23T03:22:16;100107.61;;;13.51;58.69
43681;BME280;29281;50.356;30.894;2023-04-23T03:23:19;100111.48;;;13.58;58.27
43681;BME280;29281;50.356;30.894;2023-04-23T03:24:22;100113.06;;;13.49;58.45
43681;BME280;29281;50.356;30.894;2023-04-23T03:25:26;100104.70;;;13.54;58.71
43681;BME280;29281;50.356;30.894;2023-04-23T03:26:29;100100.69;;;13.59;59.00
43681;BME280;29281;50.356;30.894;2023-04-23T03:27:33;100117.27;;;13.63;59.06
43681;BME280;29281;50.356;30.894;2023-04-23T03:28:41;100118.13;;;13.63;59.40
43681;BME280;29281;50.356;30.894;2023-04-23T03:29:45;100118.37;;;13.60;59.38
43681;BME280;29281;50.356;30.894;2023-04-23T03:30:49;100113.14;;;13.70;59.13
43681;BME280;29281;50.356;30.894;2023-04-23T03:31:52;100115.44;;;13.75;58.53
43681;BME280;29281;50.356;30.894;2023-04-23T03:32:55;100119.21;;;13.61;58.93
43681;BME280;29281;50.356;30.894;2023-04-23T03:33:59;100121.64;;;13.64;58.40
43681;BME280;29281;50.356;30.894;2023-04-23T03:35:04;100122.16;;;13.58;58.75
43681;BME280;29281;50.356;30.894;2023-04-23T03:36:08;100117.52;;;13.60;58.42
43681;BME280;29281;50.356;30.894;2023-04-23T03:37:10;100121.75;;;13.73;58.35
43681;BME280;29281;50.356;30.894;2023-04-23T03:38:15;100115.77;;;13.81;58.69
43681;BME280;29281;50.356;30.894;2023-04-23T03:39:18;100119.36;;;13.91;58.55
43681;BME280;29281;50.356;30.894;2023-04-23T03:40:26;100115.59;;;13.94;58.55
43681;BME280;29281;50.356;30.894;2023-04-23T03:41:31;100121.41;;;13.99;58.16
43681;BME280;29281;50.356;30.894;2023-04-23T03:42:36;100117.16;;;13.96;58.10
43681;BME280;29281;50.356;30.894;2023-04-23T03:43:39;100114.50;;;13.96;57.63
43681;BME280;29281;50.356;30.894;2023-04-23T03:44:53;100118.02;;;13.97;57.64
43681;BME280;29281;50.356;30.894;2023-04-23T03:45:56;100115.03;;;14.11;58.04
43681;BME280;29281;50.356;30.894;2023-04-23T03:47:00;100124.24;;;14.18;57.36
43681;BME280;29281;50.356;30.894;2023-04-23T03:48:05;100121.16;;;14.23;56.98
43681;BME280;29281;50.356;30.894;2023-04-23T03:49:11;100122.14;;;14.22;57.22
43681;BME280;29281;50.356;30.894;2023-04-23T03:50:16;100122.35;;;14.30;56.87
43681;BME280;29281;50.356;30.894;2023-04-23T03:51:21;100126.50;;;14.23;56.60
43681;BME280;29281;50.356;30.894;2023-04-23T03:52:24;100124.55;;;14.25;56.63
43681;BME280;29281;50.356;30.894;2023-04-23T03:53:27;100129.05;;;14.24;56.91
43681;BME280;29281;50.356;30.894;2023-04-23T03:54:51;100124.30;;;14.28;56.75
43681;BME280;29281;50.356;30.894;2023-04-23T03:55:56;100136.02;;;14.36;56.44
43681;BME280;29281;50.356;30.894;2023-04-23T03:57:00;100128.84;;;14.48;56.22
43681;BME280;29281;50.356;30.894;2023-04-23T03:58:05;100132.25;;;14.39;55.92
43681;BME280;29281;50.356;30.894;2023-04-23T03:59:13;100131.77;;;14.45;56.11
43681;BME280;29281;50.356;30.894;2023-04-23T04:00:17;100131.10;;;14.53;56.17
43681;BME280;29281;50.356;30.894;2023-04-23T04:01:20;100136.06;;;14.57;56.22
43681;BME280;29281;50.356;30.894;2023-04-23T04:02:23;100140.22;;;14.71;56.31
43681;BME280;29281;50.356;30.894;2023-04-23T04:03:27;100139.84;;;14.75;56.01
43681;BME280;29281;50.356;30.894;2023-04-23T04:04:35;100143.16;;;14.68;55.85
43681;BME280;29281;50.356;30.894;2023-04-23T04:05:38;100143.82;;;14.81;55.41
43681;BME280;29281;50.356;30.894;2023-04-23T04:06:42;100146.53;;;14.91;55.35
43681;BME280;29281;50.356;30.894;2023-04-23T04:07:44;100144.88;;;14.99;55.03
43681;BME280;29281;50.356;30.894;2023-04-23T04:08:48;100150.71;;;15.14;54.59
43681;BME280;29281;50.356;30.894;2023-04-23T04:09:52;100148.59;;;15.08;54.79
43681;BME280;29281;50.356;30.894;2023-04-23T04:10:57;100142.98;;;15.11;55.07
43681;BME280;29281;50.356;30.894;2023-04-23T04:12:01;100148.00;;;15.04;54.71
43681;BME280;29281;50.356;30.894;2023-04-23T04:13:06;100156.78;;;15.16;54.90
43681;BME280;29281;50.356;30.894;2023-04-23T04:14:09;100153.84;;;15.19;53.74
43681;BME280;29281;50.356;30.894;2023-04-23T04:15:14;100154.45;;;15.32;53.32
43681;BME280;29281;50.356;30.894;2023-04-23T04:16:19;100157.95;;;15.23;53.32
43681;BME280;29281;50.356;30.894;2023-04-23T04:17:22;100147.96;;;15.25;53.82
43681;BME280;29281;50.356;30.894;2023-04-23T04:18:27;100162.21;;;15.35;53.14
43681;BME280;29281;50.356;30.894;2023-04-23T04:19:31;100160.13;;;15.39;53.32
43681;BME280;29281;50.356;30.894;2023-04-23T04:20:34;100160.41;;;15.45;52.81
43681;BME280;29281;50.356;30.894;2023-04-23T04:21:38;100163.27;;;15.54;52.78
43681;BME280;29281;50.356;30.894;2023-04-23T04:22:42;100156.48;;;15.49;52.29
43681;BME280;29281;50.356;30.894;2023-04-23T04:23:47;100170.21;;;15.56;52.84
43681;BME280;29281;50.356;30.894;2023-04-23T04:24:52;100158.31;;;15.49;52.70
43681;BME280;29281;50.356;30.894;2023-04-23T04:25:56;100165.14;;;15.63;52.81
43681;BME280;29281;50.356;30.894;2023-04-23T04:27:00;100164.20;;;15.73;52.65
43681;BME280;29281;50.356;30.894;2023-04-23T04:28:05;100169.56;;;15.83;51.72
43681;BME280;29281;50.356;30.894;2023-04-23T04:29:09;100166.70;;;15.75;51.95
43681;BME280;29281;50.356;30.894;2023-04-23T04:30:13;100178.00;;;15.78;52.37
43681;BME280;29281;50.356;30.894;2023-04-23T04:31:16;100168.00;;;15.90;51.83
43681;BME280;29281;50.356;30.894;2023-04-23T04:32:22;100174.92;;;15.93;51.68
43681;BME280;29281;50.356;30.894;2023-04-23T04:33:26;100170.41;;;15.93;51.36
43681;BME280;29281;50.356;30.894;2023-04-23T04:34:30;100175.22;;;15.99;50.98
43681;BME280;29281;50.356;30.894;2023-04-23T04:35:33;100182.55;;;15.97;51.04
43681;BME280;29281;50.356;30.894;2023-04-23T04:36:38;100176.92;;;16.00;50.99
43681;BME280;29281;50.356;30.894;2023-04-23T04:37:43;100183.26;;;16.09;51.23
43681;BME280;29281;50.356;30.894;2023-04-23T04:38:46;100178.34;;;16.14;51.10
43681;BME280;29281;50.356;30.894;2023-04-23T04:39:50;100181.42;;;16.09;50.79
43681;BME280;29281;50.356;30.894;2023-04-23T04:40:54;100182.27;;;16.19;50.96
43681;BME280;29281;50.356;30.894;2023-04-23T04:42:04;100179.89;;;16.26;51.03
43681;BME280;29281;50.356;30.894;2023-04-23T04:43:09;100184.25;;;16.37;50.47
43681;BME280;29281;50.356;30.894;2023-04-23T04:44:12;100180.88;;;16.44;50.43
43681;BME280;29281;50.356;30.894;2023-04-23T04:45:16;100180.73;;;16.46;49.92
43681;BME280;29281;50.356;30.894;2023-04-23T04:46:19;100187.06;;;16.54;49.96
43681;BME280;29281;50.356;30.894;2023-04-23T04:47:23;100188.78;;;16.46;49.30
43681;BME280;29281;50.356;30.894;2023-04-23T04:48:29;100186.50;;;16.51;49.56
43681;BME280;29281;50.356;30.894;2023-04-23T04:49:32;100183.98;;;16.49;49.77
43681;BME280;29281;50.356;30.894;2023-04-23T04:50:37;100187.64;;;16.39;50.26
43681;BME280;29281;50.356;30.894;2023-04-23T04:51:41;100189.75;;;16.35;50.04
43681;BME280;29281;50.356;30.894;2023-04-23T04:52:44;100192.16;;;16.38;49.98
43681;BME280;29281;50.356;30.894;2023-04-23T04:53:47;100189.91;;;16.43;50.26
43681;BME280;29281;50.356;30.894;2023-04-23T04:54:51;100189.61;;;16.37;49.83
43681;BME280;29281;50.356;30.894;2023-04-23T04:55:53;100202.04;;;16.18;50.00
43681;BME280;29281;50.356;30.894;2023-04-23T04:56:59;100196.37;;;16.22;50.66
43681;BME280;29281;50.356;30.894;2023-04-23T04:58:04;100194.84;;;16.19;50.42
43681;BME280;29281;50.356;30.894;2023-04-23T04:59:08;100200.04;;;16.11;50.51
43681;BME280;29281;50.356;30.894;2023-04-23T05:00:18;100201.19;;;16.28;50.68
43681;BME280;29281;50.356;30.894;2023-04-23T05:01:22;100201.73;;;16.22;50.92
43681;BME280;29281;50.356;30.894;2023-04-23T05:02:28;100199.49;;;16.27;51.54
43681;BME280;29281;50.356;30.894;2023-04-23T05:03:32;100200.31;;;16.08;51.29
43681;BME280;29281;50.356;30.894;2023-04-23T05:04:35;100201.02;;;16.10;51.89
43681;BME280;29281;50.356;30.894;2023-04-23T05:05:39;100200.75;;;16.23;52.29
43681;BME280;29281;50.356;30.894;2023-04-23T05:06:43;100195.97;;;16.26;51.68
43681;BME280;29281;50.356;30.894;2023-04-23T05:07:52;100194.84;;;16.48;51.71
43681;BME280;29281;50.356;30.894;2023-04-23T05:09:01;100198.06;;;16.51;51.25
43681;BME280;29281;50.356;30.894;2023-04-23T05:10:04;100192.47;;;16.64;51.52
43681;BME280;29281;50.356;30.894;2023-04-23T05:11:08;100200.91;;;16.69;50.94
43681;BME280;29281;50.356;30.894;2023-04-23T05:12:12;100200.34;;;16.66;51.41
43681;BME280;29281;50.356;30.894;2023-04-23T05:13:16;100200.77;;;16.71;51.14
43681;BME280;29281;50.356;30.894;2023-04-23T05:14:19;100199.63;;;16.54;51.21
43681;BME280;29281;50.356;30.894;2023-04-23T05:15:22;100204.98;;;16.54;51.41
43681;BME280;29281;50.356;30.894;2023-04-23T05:16:25;100204.73;;;16.76;50.94
43681;BME280;29281;50.356;30.894;2023-04-23T05:17:28;100207.63;;;17.02;50.55
43681;BME280;29281;50.356;30.894;2023-04-23T05:18:32;100204.14;;;17.29;49.91
43681;BME280;29281;50.356;30.894;2023-04-23T05:19:34;100205.36;;;17.44;49.53
43681;BME280;29281;50.356;30.894;2023-04-23T05:20:38;100214.30;;;17.72;49.08
43681;BME280;29281;50.356;30.894;2023-04-23T05:21:41;100214.38;;;17.53;49.14
43681;BME280;29281;50.356;30.894;2023-04-23T05:22:45;100210.44;;;17.47;49.30
43681;BME280;29281;50.356;30.894;2023-04-23T05:23:48;100210.17;;;17.78;48.89
43681;BME280;29281;50.356;30.894;2023-04-23T05:24:54;100214.45;;;17.98;48.65
43681;BME280;29281;50.356;30.894;2023-04-23T05:25:57;100212.46;;;18.00;48.52
43681;BME280;29281;50.356;30.894;2023-04-23T05:27:00;100219.60;;;18.09;48.20
43681;BME280;29281;50.356;30.894;2023-04-23T05:28:04;100214.78;;;18.13;47.63
43681;BME280;29281;50.356;30.894;2023-04-23T05:29:10;100222.44;;;18.08;46.92
43681;BME280;29281;50.356;30.894;2023-04-23T05:30:15;100224.22;;;18.35;46.99
43681;BME280;29281;50.356;30.894;2023-04-23T05:31:18;100224.70;;;18.66;46.67
43681;BME280;29281;50.356;30.894;2023-04-23T05:32:21;100227.95;;;18.95;46.02